sensor_id;sensor_type;location;lat;lon;timestamp;P1;durP1;ratioP1;P2;durP2;ratioP2
40058;SDS011;25763;49.972;8.568;2023-11-21T00:02:11;46.88;;;44.38;;
40058;SDS011;25763;49.972;8.568;2023-11-21T00:04:36;46.95;;;44.55;;
40058;SDS011;25763;49.972;8.568;2023-11-21T00:07:02;47.92;;;45.47;;
40058;SDS011;25763;49.972;8.568;2023-11-21T00:09:28;48.17;;;45.70;;
40058;SDS011;25763;49.972;8.568;2023-11-21T00:11:53;48.30;;;45.85;;
40058;SDS011;25763;49.972;8.568;2023-11-21T00:14:18;46.55;;;44.15;;
40058;SDS011;25763;49.972;8.568;2023-11-21T00:16:44;46.95;;;44.30;;
40058;SDS011;25763;49.972;8.568;2023-11-21T00:19:10;49.00;;;46.50;;
40058;SDS011;25763;49.972;8.568;2023-11-21T00:21:36;45.90;;;43.58;;
40058;SDS011;25763;49.972;8.568;2023-11-21T00:24:01;49.65;;;47.15;;
40058;SDS011;25763;49.972;8.568;2023-11-21T00:26:27;51.80;;;49.20;;
40058;SDS011;25763;49.972;8.568;2023-11-21T00:28:52;52.00;;;49.30;;
40058;SDS011;25763;49.972;8.568;2023-11-21T00:31:18;52.38;;;49.58;;
40058;SDS011;25763;49.972;8.568;2023-11-21T00:33:43;54.85;;;52.05;;
40058;SDS011;25763;49.972;8.568;2023-11-21T00:36:09;52.08;;;49.38;;
40058;SDS011;25763;49.972;8.568;2023-11-21T00:38:37;50.08;;;47.55;;
40058;SDS011;25763;49.972;8.568;2023-11-21T00:41:05;52.45;;;49.55;;
40058;SDS011;25763;49.972;8.568;2023-11-21T00:43:31;51.03;;;48.42;;
40058;SDS011;25763;49.972;8.568;2023-11-21T00:45:58;51.25;;;48.65;;
40058;SDS011;25763;49.972;8.568;2023-11-21T00:48:23;53.60;;;50.67;;
40058;SDS011;25763;49.972;8.568;2023-11-21T00:50:48;53.63;;;50.85;;
40058;SDS011;25763;49.972;8.568;2023-11-21T00:53:15;55.00;;;52.17;;
40058;SDS011;25763;49.972;8.568;2023-11-21T00:55:40;55.83;;;52.92;;
40058;SDS011;25763;49.972;8.568;2023-11-21T00:58:06;53.83;;;51.08;;
40058;SDS011;25763;49.972;8.568;2023-11-21T01:00:32;52.67;;;50.03;;
40058;SDS011;25763;49.972;8.568;2023-11-21T01:02:58;56.13;;;53.22;;
40058;SDS011;25763;49.972;8.568;2023-11-21T01:05:24;55.83;;;53.00;;
40058;SDS011;25763;49.972;8.568;2023-11-21T01:07:49;54.35;;;51.55;;
40058;SDS011;25763;49.972;8.568;2023-11-21T01:10:15;55.20;;;52.42;;
40058;SDS011;25763;49.972;8.568;2023-11-21T01:12:42;57.22;;;54.30;;
40058;SDS011;25763;49.972;8.568;2023-11-21T01:15:08;55.17;;;52.38;;
40058;SDS011;25763;49.972;8.568;2023-11-21T01:17:33;56.95;;;54.08;;
40058;SDS011;25763;49.972;8.568;2023-11-21T01:19:59;55.92;;;53.05;;
40058;SDS011;25763;49.972;8.568;2023-11-21T01:22:25;55.50;;;52.67;;
40058;SDS011;25763;49.972;8.568;2023-11-21T01:24:54;60.03;;;57.00;;
40058;SDS011;25763;49.972;8.568;2023-11-21T01:27:20;55.45;;;52.65;;
40058;SDS011;25763;49.972;8.568;2023-11-21T01:29:45;58.30;;;55.35;;
40058;SDS011;25763;49.972;8.568;2023-11-21T01:32:11;59.22;;;56.22;;
40058;SDS011;25763;49.972;8.568;2023-11-21T01:34:36;58.88;;;55.78;;
40058;SDS011;25763;49.972;8.568;2023-11-21T01:37:02;59.60;;;56.42;;
40058;SDS011;25763;49.972;8.568;2023-11-21T01:39:29;59.58;;;56.58;;
40058;SDS011;25763;49.972;8.568;2023-11-21T01:41:55;58.83;;;55.70;;
40058;SDS011;25763;49.972;8.568;2023-11-21T01:44:20;63.15;;;59.05;;
40058;SDS011;25763;49.972;8.568;2023-11-21T01:46:46;65.13;;;61.75;;
40058;SDS011;25763;49.972;8.568;2023-11-21T01:49:12;64.43;;;61.03;;
40058;SDS011;25763;49.972;8.568;2023-11-21T01:51:40;67.50;;;63.92;;
40058;SDS011;25763;49.972;8.568;2023-11-21T01:54:08;70.50;;;66.93;;
40058;SDS011;25763;49.972;8.568;2023-11-21T01:56:34;68.80;;;65.32;;
40058;SDS011;25763;49.972;8.568;2023-11-21T01:58:59;73.63;;;69.93;;
40058;SDS011;25763;49.972;8.568;2023-11-21T02:01:25;70.60;;;67.05;;
40058;SDS011;25763;49.972;8.568;2023-11-21T02:03:51;74.43;;;70.63;;
40058;SDS011;25763;49.972;8.568;2023-11-21T02:06:17;73.00;;;69.32;;
40058;SDS011;25763;49.972;8.568;2023-11-21T02:08:43;76.47;;;72.57;;
40058;SDS011;25763;49.972;8.568;2023-11-21T02:11:09;81.38;;;77.28;;
40058;SDS011;25763;49.972;8.568;2023-11-21T02:13:38;78.18;;;74.13;;
40058;SDS011;25763;49.972;8.568;2023-11-21T02:16:04;75.15;;;71.38;;
40058;SDS011;25763;49.972;8.568;2023-11-21T02:18:31;77.90;;;73.93;;
40058;SDS011;25763;49.972;8.568;2023-11-21T02:20:56;79.53;;;75.53;;
40058;SDS011;25763;49.972;8.568;2023-11-21T02:23:21;76.78;;;72.93;;
40058;SDS011;25763;49.972;8.568;2023-11-21T02:25:48;81.53;;;77.43;;
40058;SDS011;25763;49.972;8.568;2023-11-21T02:28:13;78.28;;;74.32;;
40058;SDS011;25763;49.972;8.568;2023-11-21T02:30:40;72.97;;;69.30;;
40058;SDS011;25763;49.972;8.568;2023-11-21T02:33:05;76.55;;;72.65;;
40058;SDS011;25763;49.972;8.568;2023-11-21T02:35:32;76.25;;;72.15;;
40058;SDS011;25763;49.972;8.568;2023-11-21T02:37:57;71.63;;;68.03;;
40058;SDS011;25763;49.972;8.568;2023-11-21T02:40:23;69.07;;;65.57;;
40058;SDS011;25763;49.972;8.568;2023-11-21T02:42:50;68.63;;;65.15;;
40058;SDS011;25763;49.972;8.568;2023-11-21T02:45:16;68.65;;;65.18;;
40058;SDS011;25763;49.972;8.568;2023-11-21T02:47:43;60.60;;;57.50;;
40058;SDS011;25763;49.972;8.568;2023-11-21T02:50:09;61.05;;;57.95;;
40058;SDS011;25763;49.972;8.568;2023-11-21T02:52:35;60.45;;;57.35;;
40058;SDS011;25763;49.972;8.568;2023-11-21T02:55:01;58.70;;;55.70;;
40058;SDS011;25763;49.972;8.568;2023-11-21T02:57:27;60.15;;;56.95;;
40058;SDS011;25763;49.972;8.568;2023-11-21T02:59:52;57.40;;;54.42;;
40058;SDS011;25763;49.972;8.568;2023-11-21T03:02:18;56.50;;;53.65;;
40058;SDS011;25763;49.972;8.568;2023-11-21T03:04:43;53.50;;;50.72;;
40058;SDS011;25763;49.972;8.568;2023-11-21T03:07:09;53.67;;;50.83;;
40058;SDS011;25763;49.972;8.568;2023-11-21T03:09:35;50.42;;;47.83;;
40058;SDS011;25763;49.972;8.568;2023-11-21T03:12:00;51.17;;;48.58;;
40058;SDS011;25763;49.972;8.568;2023-11-21T03:14:27;48.83;;;46.30;;
40058;SDS011;25763;49.972;8.568;2023-11-21T03:16:52;48.40;;;45.90;;
40058;SDS011;25763;49.972;8.568;2023-11-21T03:19:17;46.72;;;44.33;;
40058;SDS011;25763;49.972;8.568;2023-11-21T03:21:43;50.45;;;47.65;;
40058;SDS011;25763;49.972;8.568;2023-11-21T03:24:08;48.03;;;45.58;;
40058;SDS011;25763;49.972;8.568;2023-11-21T03:26:33;48.53;;;46.03;;
40058;SDS011;25763;49.972;8.568;2023-11-21T03:28:59;48.70;;;46.20;;
40058;SDS011;25763;49.972;8.568;2023-11-21T03:31:24;53.70;;;50.22;;
40058;SDS011;25763;49.972;8.568;2023-11-21T03:33:50;52.97;;;50.28;;
40058;SDS011;25763;49.972;8.568;2023-11-21T03:36:15;55.13;;;52.33;;
40058;SDS011;25763;49.972;8.568;2023-11-21T03:38:41;59.65;;;56.60;;
40058;SDS011;25763;49.972;8.568;2023-11-21T03:41:07;58.83;;;55.83;;
40058;SDS011;25763;49.972;8.568;2023-11-21T03:43:35;62.78;;;59.58;;
40058;SDS011;25763;49.972;8.568;2023-11-21T03:46:01;65.10;;;61.78;;
40058;SDS011;25763;49.972;8.568;2023-11-21T03:48:26;71.97;;;68.38;;
40058;SDS011;25763;49.972;8.568;2023-11-21T03:50:52;75.93;;;71.75;;
40058;SDS011;25763;49.972;8.568;2023-11-21T03:53:17;79.10;;;75.10;;
40058;SDS011;25763;49.972;8.568;2023-11-21T03:55:42;78.10;;;74.20;;
40058;SDS011;25763;49.972;8.568;2023-11-21T03:58:08;76.97;;;73.05;;
40058;SDS011;25763;49.972;8.568;2023-11-21T04:00:33;77.22;;;73.32;;
40058;SDS011;25763;49.972;8.568;2023-11-21T04:02:58;78.10;;;74.15;;
40058;SDS011;25763;49.972;8.568;2023-11-21T04:05:24;82.90;;;78.68;;
40058;SDS011;25763;49.972;8.568;2023-11-21T04:07:49;82.72;;;78.57;;
40058;SDS011;25763;49.972;8.568;2023-11-21T04:10:22;90.28;;;85.53;;
40058;SDS011;25763;49.972;8.568;2023-11-21T04:12:47;91.68;;;87.00;;
40058;SDS011;25763;49.972;8.568;2023-11-21T04:15:13;92.95;;;88.30;;
40058;SDS011;25763;49.972;8.568;2023-11-21T04:17:39;100.15;;;95.15;;
40058;SDS011;25763;49.972;8.568;2023-11-21T04:20:05;108.28;;;102.70;;
40058;SDS011;25763;49.972;8.568;2023-11-21T04:22:41;105.13;;;99.82;;
40058;SDS011;25763;49.972;8.568;2023-11-21T04:25:09;103.22;;;98.10;;
40058;SDS011;25763;49.972;8.568;2023-11-21T04:27:36;104.75;;;99.43;;
40058;SDS011;25763;49.972;8.568;2023-11-21T04:30:01;102.68;;;97.55;;
40058;SDS011;25763;49.972;8.568;2023-11-21T04:32:27;100.82;;;95.75;;
40058;SDS011;25763;49.972;8.568;2023-11-21T04:34:52;100.18;;;95.18;;
40058;SDS011;25763;49.972;8.568;2023-11-21T04:37:17;99.75;;;94.80;;
40058;SDS011;25763;49.972;8.568;2023-11-21T04:39:43;102.70;;;97.53;;
40058;SDS011;25763;49.972;8.568;2023-11-21T04:42:08;102.82;;;97.70;;
40058;SDS011;25763;49.972;8.568;2023-11-21T04:44:33;104.88;;;99.65;;
40058;SDS011;25763;49.972;8.568;2023-11-21T04:46:59;105.50;;;100.25;;
40058;SDS011;25763;49.972;8.568;2023-11-21T04:49:24;97.93;;;93.00;;
40058;SDS011;25763;49.972;8.568;2023-11-21T04:51:49;100.13;;;95.07;;
40058;SDS011;25763;49.972;8.568;2023-11-21T04:54:15;102.90;;;97.72;;
40058;SDS011;25763;49.972;8.568;2023-11-21T04:56:40;99.78;;;94.80;;
40058;SDS011;25763;49.972;8.568;2023-11-21T04:59:05;96.38;;;91.57;;
40058;SDS011;25763;49.972;8.568;2023-11-21T05:01:31;97.40;;;92.43;;
40058;SDS011;25763;49.972;8.568;2023-11-21T05:03:56;94.32;;;89.65;;
40058;SDS011;25763;49.972;8.568;2023-11-21T05:06:22;91.60;;;87.03;;
40058;SDS011;25763;49.972;8.568;2023-11-21T05:08:49;94.47;;;89.78;;
40058;SDS011;25763;49.972;8.568;2023-11-21T05:11:23;93.20;;;88.55;;
40058;SDS011;25763;49.972;8.568;2023-11-21T05:13:49;98.50;;;93.60;;
40058;SDS011;25763;49.972;8.568;2023-11-21T05:16:15;98.07;;;93.20;;
40058;SDS011;25763;49.972;8.568;2023-11-21T05:18:40;91.60;;;87.05;;
40058;SDS011;25763;49.972;8.568;2023-11-21T05:21:06;95.20;;;90.47;;
40058;SDS011;25763;49.972;8.568;2023-11-21T05:23:32;95.30;;;90.57;;
40058;SDS011;25763;49.972;8.568;2023-11-21T05:25:58;102.93;;;97.82;;
40058;SDS011;25763;49.972;8.568;2023-11-21T05:28:24;101.70;;;96.63;;
40058;SDS011;25763;49.972;8.568;2023-11-21T05:30:50;98.78;;;93.78;;
40058;SDS011;25763;49.972;8.568;2023-11-21T05:33:15;97.32;;;92.50;;
40058;SDS011;25763;49.972;8.568;2023-11-21T05:35:41;102.70;;;97.60;;
40058;SDS011;25763;49.972;8.568;2023-11-21T05:38:06;107.78;;;102.43;;
40058;SDS011;25763;49.972;8.568;2023-11-21T05:40:31;103.57;;;98.43;;
40058;SDS011;25763;49.972;8.568;2023-11-21T05:42:58;103.05;;;97.93;;
40058;SDS011;25763;49.972;8.568;2023-11-21T05:45:24;101.78;;;96.72;;
40058;SDS011;25763;49.972;8.568;2023-11-21T05:47:49;100.03;;;95.05;;
40058;SDS011;25763;49.972;8.568;2023-11-21T05:50:15;98.88;;;93.95;;
40058;SDS011;25763;49.972;8.568;2023-11-21T05:52:42;101.63;;;96.57;;
40058;SDS011;25763;49.972;8.568;2023-11-21T05:55:09;101.65;;;96.57;;
40058;SDS011;25763;49.972;8.568;2023-11-21T05:57:35;101.50;;;96.45;;
40058;SDS011;25763;49.972;8.568;2023-11-21T06:00:03;100.00;;;95.05;;
40058;SDS011;25763;49.972;8.568;2023-11-21T06:02:36;97.63;;;92.75;;
40058;SDS011;25763;49.972;8.568;2023-11-21T06:05:02;98.60;;;93.70;;
40058;SDS011;25763;49.972;8.568;2023-11-21T06:07:29;104.78;;;99.53;;
40058;SDS011;25763;49.972;8.568;2023-11-21T06:09:54;105.18;;;99.30;;
40058;SDS011;25763;49.972;8.568;2023-11-21T06:12:19;107.03;;;101.70;;
40058;SDS011;25763;49.972;8.568;2023-11-21T06:14:45;102.82;;;97.68;;
40058;SDS011;25763;49.972;8.568;2023-11-21T06:17:11;100.38;;;95.40;;
40058;SDS011;25763;49.972;8.568;2023-11-21T06:19:36;95.60;;;90.85;;
40058;SDS011;25763;49.972;8.568;2023-11-21T06:22:01;93.95;;;89.28;;
40058;SDS011;25763;49.972;8.568;2023-11-21T06:24:27;90.00;;;85.50;;
40058;SDS011;25763;49.972;8.568;2023-11-21T06:26:53;90.15;;;85.57;;
40058;SDS011;25763;49.972;8.568;2023-11-21T06:29:18;94.97;;;90.22;;
40058;SDS011;25763;49.972;8.568;2023-11-21T06:31:43;94.43;;;89.72;;
40058;SDS011;25763;49.972;8.568;2023-11-21T06:34:09;94.55;;;89.75;;
40058;SDS011;25763;49.972;8.568;2023-11-21T06:36:35;93.65;;;88.93;;
40058;SDS011;25763;49.972;8.568;2023-11-21T06:39:01;92.63;;;87.90;;
40058;SDS011;25763;49.972;8.568;2023-11-21T06:41:26;91.93;;;87.35;;
40058;SDS011;25763;49.972;8.568;2023-11-21T06:43:52;94.25;;;89.47;;
40058;SDS011;25763;49.972;8.568;2023-11-21T06:46:18;89.97;;;85.43;;
40058;SDS011;25763;49.972;8.568;2023-11-21T06:48:44;84.53;;;80.15;;
40058;SDS011;25763;49.972;8.568;2023-11-21T06:51:10;88.90;;;84.47;;
40058;SDS011;25763;49.972;8.568;2023-11-21T06:53:36;89.50;;;85.00;;
40058;SDS011;25763;49.972;8.568;2023-11-21T06:56:02;89.53;;;85.03;;
40058;SDS011;25763;49.972;8.568;2023-11-21T06:58:28;89.97;;;85.43;;
40058;SDS011;25763;49.972;8.568;2023-11-21T07:00:53;97.00;;;92.10;;
40058;SDS011;25763;49.972;8.568;2023-11-21T07:03:19;95.38;;;90.38;;
40058;SDS011;25763;49.972;8.568;2023-11-21T07:05:44;95.93;;;91.10;;
40058;SDS011;25763;49.972;8.568;2023-11-21T07:08:10;95.45;;;90.13;;
40058;SDS011;25763;49.972;8.568;2023-11-21T07:10:37;97.25;;;92.07;;
40058;SDS011;25763;49.972;8.568;2023-11-21T07:13:03;99.10;;;94.10;;
40058;SDS011;25763;49.972;8.568;2023-11-21T07:15:28;94.07;;;89.38;;
40058;SDS011;25763;49.972;8.568;2023-11-21T07:17:53;95.40;;;90.50;;
40058;SDS011;25763;49.972;8.568;2023-11-21T07:20:19;92.15;;;87.50;;
40058;SDS011;25763;49.972;8.568;2023-11-21T07:22:45;90.93;;;86.32;;
40058;SDS011;25763;49.972;8.568;2023-11-21T07:25:10;91.63;;;86.93;;
40058;SDS011;25763;49.972;8.568;2023-11-21T07:27:36;85.30;;;80.78;;
40058;SDS011;25763;49.972;8.568;2023-11-21T07:30:02;86.40;;;81.85;;
40058;SDS011;25763;49.972;8.568;2023-11-21T07:32:32;82.88;;;78.57;;
40058;SDS011;25763;49.972;8.568;2023-11-21T07:34:58;84.95;;;80.65;;
40058;SDS011;25763;49.972;8.568;2023-11-21T07:37:26;84.38;;;80.07;;
40058;SDS011;25763;49.972;8.568;2023-11-21T07:39:53;86.38;;;81.97;;
40058;SDS011;25763;49.972;8.568;2023-11-21T07:42:21;86.97;;;82.65;;
40058;SDS011;25763;49.972;8.568;2023-11-21T07:44:51;86.15;;;81.75;;
40058;SDS011;25763;49.972;8.568;2023-11-21T07:47:17;85.38;;;80.90;;
40058;SDS011;25763;49.972;8.568;2023-11-21T07:49:42;90.43;;;85.82;;
40058;SDS011;25763;49.972;8.568;2023-11-21T07:52:09;91.93;;;87.20;;
40058;SDS011;25763;49.972;8.568;2023-11-21T07:54:35;95.70;;;90.70;;
40058;SDS011;25763;49.972;8.568;2023-11-21T07:57:01;90.22;;;85.70;;
40058;SDS011;25763;49.972;8.568;2023-11-21T07:59:26;91.03;;;86.45;;
40058;SDS011;25763;49.972;8.568;2023-11-21T08:01:52;89.18;;;84.63;;
40058;SDS011;25763;49.972;8.568;2023-11-21T08:04:17;87.20;;;82.72;;
40058;SDS011;25763;49.972;8.568;2023-11-21T08:06:43;86.50;;;81.97;;
40058;SDS011;25763;49.972;8.568;2023-11-21T08:09:09;84.82;;;80.53;;
40058;SDS011;25763;49.972;8.568;2023-11-21T08:11:34;82.93;;;78.72;;
40058;SDS011;25763;49.972;8.568;2023-11-21T08:13:59;83.47;;;79.28;;
40058;SDS011;25763;49.972;8.568;2023-11-21T08:16:25;82.45;;;78.25;;
40058;SDS011;25763;49.972;8.568;2023-11-21T08:18:50;80.80;;;76.60;;
40058;SDS011;25763;49.972;8.568;2023-11-21T08:21:16;82.32;;;78.13;;
40058;SDS011;25763;49.972;8.568;2023-11-21T08:23:41;70.97;;;67.35;;
40058;SDS011;25763;49.972;8.568;2023-11-21T08:26:07;64.57;;;61.05;;
40058;SDS011;25763;49.972;8.568;2023-11-21T08:28:33;53.08;;;50.38;;
40058;SDS011;25763;49.972;8.568;2023-11-21T08:31:00;54.50;;;51.65;;
40058;SDS011;25763;49.972;8.568;2023-11-21T08:33:26;53.30;;;50.58;;
40058;SDS011;25763;49.972;8.568;2023-11-21T08:35:51;54.97;;;52.17;;
40058;SDS011;25763;49.972;8.568;2023-11-21T08:38:16;55.30;;;52.20;;
40058;SDS011;25763;49.972;8.568;2023-11-21T08:40:42;50.13;;;47.53;;
40058;SDS011;25763;49.972;8.568;2023-11-21T08:43:08;50.08;;;47.55;;
40058;SDS011;25763;49.972;8.568;2023-11-21T08:45:33;50.22;;;47.65;;
40058;SDS011;25763;49.972;8.568;2023-11-21T08:47:59;50.20;;;47.55;;
40058;SDS011;25763;49.972;8.568;2023-11-21T08:50:25;44.92;;;42.53;;
40058;SDS011;25763;49.972;8.568;2023-11-21T08:52:51;43.38;;;41.08;;
40058;SDS011;25763;49.972;8.568;2023-11-21T08:55:16;41.88;;;39.67;;
40058;SDS011;25763;49.972;8.568;2023-11-21T08:57:43;36.97;;;35.03;;
40058;SDS011;25763;49.972;8.568;2023-11-21T09:00:09;36.42;;;34.53;;
40058;SDS011;25763;49.972;8.568;2023-11-21T09:02:42;37.10;;;35.15;;
40058;SDS011;25763;49.972;8.568;2023-11-21T09:05:09;38.65;;;36.60;;
40058;SDS011;25763;49.972;8.568;2023-11-21T09:07:38;38.08;;;35.38;;
40058;SDS011;25763;49.972;8.568;2023-11-21T09:10:04;37.20;;;35.20;;
40058;SDS011;25763;49.972;8.568;2023-11-21T09:12:36;41.30;;;39.00;;
40058;SDS011;25763;49.972;8.568;2023-11-21T09:15:03;38.20;;;36.15;;
40058;SDS011;25763;49.972;8.568;2023-11-21T09:17:30;39.22;;;37.13;;
40058;SDS011;25763;49.972;8.568;2023-11-21T09:19:55;40.03;;;37.92;;
40058;SDS011;25763;49.972;8.568;2023-11-21T09:22:22;40.80;;;38.63;;
40058;SDS011;25763;49.972;8.568;2023-11-21T09:24:49;39.30;;;37.20;;
40058;SDS011;25763;49.972;8.568;2023-11-21T09:27:15;42.42;;;40.20;;
40058;SDS011;25763;49.972;8.568;2023-11-21T09:29:42;44.90;;;42.60;;
40058;SDS011;25763;49.972;8.568;2023-11-21T09:32:07;45.72;;;43.33;;
40058;SDS011;25763;49.972;8.568;2023-11-21T09:34:33;41.65;;;39.50;;
40058;SDS011;25763;49.972;8.568;2023-11-21T09:37:03;44.08;;;41.38;;
40058;SDS011;25763;49.972;8.568;2023-11-21T09:39:30;40.40;;;38.30;;
40058;SDS011;25763;49.972;8.568;2023-11-21T09:41:59;40.38;;;38.28;;
40058;SDS011;25763;49.972;8.568;2023-11-21T09:47:30;40.53;;;38.35;;
40058;SDS011;25763;49.972;8.568;2023-11-21T09:50:01;40.97;;;38.70;;
40058;SDS011;25763;49.972;8.568;2023-11-21T09:52:27;38.85;;;36.85;;
40058;SDS011;25763;49.972;8.568;2023-11-21T09:54:54;40.22;;;38.10;;
40058;SDS011;25763;49.972;8.568;2023-11-21T09:57:23;38.42;;;36.42;;
40058;SDS011;25763;49.972;8.568;2023-11-21T09:59:53;39.70;;;37.60;;
40058;SDS011;25763;49.972;8.568;2023-11-21T10:02:27;36.50;;;34.60;;
40058;SDS011;25763;49.972;8.568;2023-11-21T10:04:55;35.92;;;34.03;;
40058;SDS011;25763;49.972;8.568;2023-11-21T10:07:21;38.00;;;35.55;;
40058;SDS011;25763;49.972;8.568;2023-11-21T10:09:47;38.67;;;36.58;;
40058;SDS011;25763;49.972;8.568;2023-11-21T10:12:14;35.10;;;33.30;;
40058;SDS011;25763;49.972;8.568;2023-11-21T10:14:41;38.92;;;36.83;;
40058;SDS011;25763;49.972;8.568;2023-11-21T10:17:08;38.75;;;36.75;;
40058;SDS011;25763;49.972;8.568;2023-11-21T10:19:37;38.38;;;36.38;;
40058;SDS011;25763;49.972;8.568;2023-11-21T10:22:04;41.35;;;39.15;;
40058;SDS011;25763;49.972;8.568;2023-11-21T10:24:29;40.40;;;38.33;;
40058;SDS011;25763;49.972;8.568;2023-11-21T10:26:54;40.45;;;38.38;;
40058;SDS011;25763;49.972;8.568;2023-11-21T10:29:20;44.28;;;41.97;;
40058;SDS011;25763;49.972;8.568;2023-11-21T10:31:48;42.78;;;40.55;;
40058;SDS011;25763;49.972;8.568;2023-11-21T10:34:15;43.63;;;41.33;;
40058;SDS011;25763;49.972;8.568;2023-11-21T10:36:42;43.92;;;41.55;;
40058;SDS011;25763;49.972;8.568;2023-11-21T10:39:07;44.22;;;41.88;;
40058;SDS011;25763;49.972;8.568;2023-11-21T10:41:34;44.25;;;41.97;;
40058;SDS011;25763;49.972;8.568;2023-11-21T10:44:00;47.08;;;44.67;;
40058;SDS011;25763;49.972;8.568;2023-11-21T10:46:29;41.53;;;39.33;;
40058;SDS011;25763;49.972;8.568;2023-11-21T10:48:55;45.95;;;43.45;;
40058;SDS011;25763;49.972;8.568;2023-11-21T10:51:21;44.42;;;42.03;;
40058;SDS011;25763;49.972;8.568;2023-11-21T10:53:49;42.17;;;39.92;;
40058;SDS011;25763;49.972;8.568;2023-11-21T10:56:16;45.72;;;43.28;;
40058;SDS011;25763;49.972;8.568;2023-11-21T10:58:46;45.50;;;43.17;;
40058;SDS011;25763;49.972;8.568;2023-11-21T11:03:43;38.50;;;36.50;;
40058;SDS011;25763;49.972;8.568;2023-11-21T11:06:09;45.40;;;43.10;;
40058;SDS011;25763;49.972;8.568;2023-11-21T11:08:39;46.88;;;44.38;;
40058;SDS011;25763;49.972;8.568;2023-11-21T11:11:05;48.35;;;45.88;;
40058;SDS011;25763;49.972;8.568;2023-11-21T11:13:32;50.90;;;48.30;;
40058;SDS011;25763;49.972;8.568;2023-11-21T11:15:58;51.20;;;48.58;;
40058;SDS011;25763;49.972;8.568;2023-11-21T11:18:25;47.05;;;44.58;;
40058;SDS011;25763;49.972;8.568;2023-11-21T11:20:51;45.83;;;43.53;;
40058;SDS011;25763;49.972;8.568;2023-11-21T11:34:48;38.28;;;36.03;;
40058;SDS011;25763;49.972;8.568;2023-11-21T11:37:21;37.42;;;35.22;;
40058;SDS011;25763;49.972;8.568;2023-11-21T11:39:48;34.13;;;32.30;;
40058;SDS011;25763;49.972;8.568;2023-11-21T11:42:15;34.95;;;33.15;;
40058;SDS011;25763;49.972;8.568;2023-11-21T11:47:19;36.33;;;34.42;;
40058;SDS011;25763;49.972;8.568;2023-11-21T11:50:05;33.95;;;32.17;;
40058;SDS011;25763;49.972;8.568;2023-11-21T11:52:42;33.22;;;31.38;;
40058;SDS011;25763;49.972;8.568;2023-11-21T11:55:10;34.85;;;32.85;;
40058;SDS011;25763;49.972;8.568;2023-11-21T11:57:38;34.08;;;32.13;;
40058;SDS011;25763;49.972;8.568;2023-11-21T12:00:08;34.00;;;32.08;;
40058;SDS011;25763;49.972;8.568;2023-11-21T12:02:48;35.00;;;33.10;;
40058;SDS011;25763;49.972;8.568;2023-11-21T12:05:16;34.17;;;32.35;;
40058;SDS011;25763;49.972;8.568;2023-11-21T12:07:46;32.42;;;30.60;;
40058;SDS011;25763;49.972;8.568;2023-11-21T12:10:32;31.63;;;30.00;;
40058;SDS011;25763;49.972;8.568;2023-11-21T12:12:59;34.67;;;32.78;;
40058;SDS011;25763;49.972;8.568;2023-11-21T12:15:26;34.22;;;32.42;;
40058;SDS011;25763;49.972;8.568;2023-11-21T12:17:54;33.50;;;31.80;;
40058;SDS011;25763;49.972;8.568;2023-11-21T12:20:20;33.08;;;31.38;;
40058;SDS011;25763;49.972;8.568;2023-11-21T12:22:53;33.22;;;30.98;;
40058;SDS011;25763;49.972;8.568;2023-11-21T12:25:24;32.80;;;31.03;;
40058;SDS011;25763;49.972;8.568;2023-11-21T12:27:54;32.35;;;30.65;;
40058;SDS011;25763;49.972;8.568;2023-11-21T12:30:21;33.67;;;31.88;;
40058;SDS011;25763;49.972;8.568;2023-11-21T12:32:48;32.67;;;30.98;;
40058;SDS011;25763;49.972;8.568;2023-11-21T12:35:16;34.08;;;32.28;;
40058;SDS011;25763;49.972;8.568;2023-11-21T12:37:44;34.13;;;32.33;;
40058;SDS011;25763;49.972;8.568;2023-11-21T12:40:10;34.03;;;31.52;;
40058;SDS011;25763;49.972;8.568;2023-11-21T12:42:37;33.33;;;31.52;;
40058;SDS011;25763;49.972;8.568;2023-11-21T12:47:40;34.22;;;32.42;;
40058;SDS011;25763;49.972;8.568;2023-11-21T12:50:18;33.00;;;31.30;;
40058;SDS011;25763;49.972;8.568;2023-11-21T12:55:19;35.83;;;33.85;;
40058;SDS011;25763;49.972;8.568;2023-11-21T12:57:50;33.80;;;31.75;;
40058;SDS011;25763;49.972;8.568;2023-11-21T13:00:17;33.33;;;31.63;;
40058;SDS011;25763;49.972;8.568;2023-11-21T13:02:54;32.78;;;31.08;;
40058;SDS011;25763;49.972;8.568;2023-11-21T13:05:35;34.35;;;32.55;;
40058;SDS011;25763;49.972;8.568;2023-11-21T13:08:05;34.65;;;32.78;;
40058;SDS011;25763;49.972;8.568;2023-11-21T13:10:38;35.22;;;33.42;;
40058;SDS011;25763;49.972;8.568;2023-11-21T13:13:09;35.53;;;33.63;;
40058;SDS011;25763;49.972;8.568;2023-11-21T13:15:47;34.70;;;32.90;;
40058;SDS011;25763;49.972;8.568;2023-11-21T13:18:13;34.28;;;32.47;;
40058;SDS011;25763;49.972;8.568;2023-11-21T13:20:39;33.95;;;31.83;;
40058;SDS011;25763;49.972;8.568;2023-11-21T13:23:07;34.85;;;32.97;;
40058;SDS011;25763;49.972;8.568;2023-11-21T13:25:33;35.67;;;33.78;;
40058;SDS011;25763;49.972;8.568;2023-11-21T13:27:59;34.95;;;33.05;;
40058;SDS011;25763;49.972;8.568;2023-11-21T13:30:25;34.65;;;32.78;;
40058;SDS011;25763;49.972;8.568;2023-11-21T13:32:52;33.13;;;31.42;;
40058;SDS011;25763;49.972;8.568;2023-11-21T13:35:22;35.95;;;34.05;;
40058;SDS011;25763;49.972;8.568;2023-11-21T13:37:55;32.78;;;31.08;;
40058;SDS011;25763;49.972;8.568;2023-11-21T13:40:25;36.97;;;34.70;;
40058;SDS011;25763;49.972;8.568;2023-11-21T13:42:54;34.50;;;32.70;;
40058;SDS011;25763;49.972;8.568;2023-11-21T13:45:24;33.00;;;31.27;;
40058;SDS011;25763;49.972;8.568;2023-11-21T13:47:52;34.38;;;32.50;;
40058;SDS011;25763;49.972;8.568;2023-11-21T13:50:26;33.83;;;32.03;;
40058;SDS011;25763;49.972;8.568;2023-11-21T13:52:58;33.55;;;31.75;;
40058;SDS011;25763;49.972;8.568;2023-11-21T13:55:28;33.10;;;31.10;;
40058;SDS011;25763;49.972;8.568;2023-11-21T13:57:53;33.53;;;31.77;;
40058;SDS011;25763;49.972;8.568;2023-11-21T14:00:19;34.67;;;32.78;;
40058;SDS011;25763;49.972;8.568;2023-11-21T14:03:03;35.60;;;33.30;;
40058;SDS011;25763;49.972;8.568;2023-11-21T14:05:33;34.95;;;33.10;;
40058;SDS011;25763;49.972;8.568;2023-11-21T14:07:59;34.90;;;33.08;;
40058;SDS011;25763;49.972;8.568;2023-11-21T14:10:30;34.40;;;32.60;;
40058;SDS011;25763;49.972;8.568;2023-11-21T14:13:05;33.95;;;32.03;;
40058;SDS011;25763;49.972;8.568;2023-11-21T14:15:31;33.95;;;32.15;;
40058;SDS011;25763;49.972;8.568;2023-11-21T14:17:58;35.30;;;33.45;;
40058;SDS011;25763;49.972;8.568;2023-11-21T14:20:27;33.65;;;31.88;;
40058;SDS011;25763;49.972;8.568;2023-11-21T14:22:54;33.05;;;31.35;;
40058;SDS011;25763;49.972;8.568;2023-11-21T14:25:19;33.28;;;31.55;;
40058;SDS011;25763;49.972;8.568;2023-11-21T14:27:46;33.65;;;31.92;;
40058;SDS011;25763;49.972;8.568;2023-11-21T14:30:11;35.72;;;33.83;;
40058;SDS011;25763;49.972;8.568;2023-11-21T14:32:38;33.63;;;31.88;;
40058;SDS011;25763;49.972;8.568;2023-11-21T14:35:04;38.33;;;36.30;;
40058;SDS011;25763;49.972;8.568;2023-11-21T14:37:30;36.60;;;34.70;;
40058;SDS011;25763;49.972;8.568;2023-11-21T14:39:55;34.40;;;32.60;;
40058;SDS011;25763;49.972;8.568;2023-11-21T14:42:22;35.20;;;33.08;;
40058;SDS011;25763;49.972;8.568;2023-11-21T14:44:50;36.40;;;34.30;;